createdAt,value
2024-01-10T00:00:08.300Z,549.00
2024-01-10T00:01:08.249Z,547.00
2024-01-10T00:02:08.365Z,547.00
2024-01-10T00:03:08.301Z,545.00
2024-01-10T00:04:08.381Z,545.00
2024-01-10T00:05:08.453Z,546.00
2024-01-10T00:06:08.608Z,545.00
2024-01-10T00:07:08.556Z,547.00
2024-01-10T00:08:08.654Z,548.00
2024-01-10T00:09:08.732Z,549.00
2024-01-10T00:10:08.748Z,550.00
2024-01-10T00:11:08.795Z,550.00
2024-01-10T00:12:08.878Z,548.00
2024-01-10T00:13:08.933Z,546.00
2024-01-10T00:14:09.020Z,546.00
2024-01-10T00:15:09.003Z,547.00
2024-01-10T00:16:09.148Z,549.00
2024-01-10T00:17:09.153Z,548.00
2024-01-10T00:18:09.330Z,548.00
2024-01-10T00:19:09.338Z,547.00
2024-01-10T00:20:09.597Z,548.00
2024-01-10T00:21:09.643Z,548.00
2024-01-10T00:22:09.703Z,548.00
2024-01-10T00:23:09.909Z,548.00
2024-01-10T00:24:10.066Z,547.00
2024-01-10T00:25:10.398Z,546.00
2024-01-10T00:26:10.449Z,546.00
2024-01-10T00:27:10.596Z,546.00
2024-01-10T00:28:10.719Z,546.00
2024-01-10T00:29:10.844Z,546.00
2024-01-10T00:30:11.057Z,544.00
2024-01-10T00:31:11.209Z,543.00
2024-01-10T00:32:11.413Z,542.00
2024-01-10T00:33:11.549Z,542.00
2024-01-10T00:34:11.798Z,541.00
2024-01-10T00:35:11.868Z,541.00
2024-01-10T00:36:11.925Z,540.00
2024-01-10T00:37:11.997Z,539.00
2024-01-10T00:38:12.153Z,537.00
2024-01-10T00:39:12.153Z,539.00
2024-01-10T00:40:12.179Z,539.00
2024-01-10T00:41:12.334Z,536.00
2024-01-10T00:42:12.322Z,536.00
2024-01-10T00:43:12.342Z,537.00
2024-01-10T00:44:13.070Z,536.00
2024-01-10T00:45:12.489Z,535.00
2024-01-10T00:46:12.591Z,536.00
2024-01-10T00:47:12.675Z,537.00
2024-01-10T00:48:12.787Z,537.00
2024-01-10T00:49:12.727Z,540.00
2024-01-10T00:50:12.817Z,540.00
2024-01-10T00:51:12.956Z,541.00
2024-01-10T00:52:13.127Z,541.00
2024-01-10T00:53:13.386Z,540.00
2024-01-10T00:54:13.339Z,543.00
2024-01-10T00:55:13.488Z,542.00
2024-01-10T00:56:13.732Z,541.00
2024-01-10T00:57:13.780Z,543.00
2024-01-10T00:58:13.910Z,540.00
2024-01-10T00:59:14.218Z,537.00
2024-01-10T01:00:14.209Z,535.00
2024-01-10T01:01:14.268Z,534.00
2024-01-10T01:02:14.419Z,535.00
2024-01-10T01:03:14.506Z,536.00
2024-01-10T01:04:14.580Z,538.00
2024-01-10T01:05:14.902Z,541.00
2024-01-10T01:06:14.980Z,541.00
2024-01-10T01:07:15.098Z,540.00
2024-01-10T01:08:15.251Z,541.00
2024-01-10T01:09:15.293Z,539.00
2024-01-10T01:10:15.436Z,540.00
2024-01-10T01:11:15.624Z,538.00
2024-01-10T01:12:15.822Z,539.00
2024-01-10T01:13:15.952Z,538.00
2024-01-10T01:14:16.081Z,539.00
2024-01-10T01:15:16.176Z,540.00
2024-01-10T01:16:16.257Z,541.00
2024-01-10T01:17:16.420Z,541.00
2024-01-10T01:18:16.674Z,542.00
2024-01-10T01:19:16.768Z,540.00
2024-01-10T01:20:16.916Z,541.00
2024-01-10T01:21:16.961Z,540.00
2024-01-10T01:22:17.093Z,541.00
2024-01-10T01:23:23.471Z,542.00
2024-01-10T01:24:18.317Z,543.00
2024-01-10T01:25:17.275Z,545.00
2024-01-10T01:26:17.380Z,545.00
2024-01-10T01:27:17.221Z,544.00
2024-01-10T01:28:17.277Z,545.00
2024-01-10T01:29:17.367Z,544.00
2024-01-10T01:30:17.245Z,542.00
2024-01-10T01:31:17.246Z,541.00
2024-01-10T01:32:17.483Z,541.00
2024-01-10T01:33:17.712Z,539.00
2024-01-10T01:34:17.839Z,540.00
2024-01-10T01:35:17.935Z,542.00
2024-01-10T01:36:17.937Z,544.00
2024-01-10T01:37:18.114Z,544.00
2024-01-10T01:38:18.332Z,545.00
2024-01-10T01:39:18.473Z,543.00
2024-01-10T01:40:18.578Z,541.00
2024-01-10T01:41:18.825Z,540.00
2024-01-10T01:42:18.823Z,543.00
2024-01-10T01:43:18.979Z,543.00
2024-01-10T01:44:19.241Z,542.00
2024-01-10T01:45:19.291Z,541.00
2024-01-10T01:46:19.449Z,542.00
2024-01-10T01:47:19.727Z,544.00
2024-01-10T01:48:19.874Z,547.00
2024-01-10T01:49:19.893Z,546.00
2024-01-10T01:50:20.037Z,543.00
2024-01-10T01:51:20.097Z,540.00
2024-01-10T01:52:20.258Z,542.00
2024-01-10T01:53:20.759Z,543.00
2024-01-10T01:54:20.492Z,544.00
2024-01-10T01:55:20.548Z,541.00
2024-01-10T01:56:20.698Z,542.00
2024-01-10T01:57:20.767Z,542.00
2024-01-10T01:58:20.791Z,541.00
2024-01-10T01:59:20.914Z,540.00
2024-01-10T02:00:20.905Z,539.00
2024-01-10T02:01:21.025Z,540.00
2024-01-10T02:02:21.297Z,540.00
2024-01-10T02:03:21.271Z,541.00
2024-01-10T02:04:21.366Z,541.00
2024-01-10T02:05:21.341Z,539.00
2024-01-10T02:06:21.406Z,538.00
2024-01-10T02:07:21.434Z,537.00
2024-01-10T02:08:21.504Z,537.00
2024-01-10T02:09:21.557Z,538.00
2024-01-10T02:10:21.592Z,539.00
2024-01-10T02:11:21.730Z,540.00
2024-01-10T02:12:21.715Z,538.00
2024-01-10T02:13:21.787Z,540.00
2024-01-10T02:14:21.910Z,543.00
2024-01-10T02:15:21.903Z,545.00
2024-01-10T02:16:21.944Z,542.00
2024-01-10T02:17:22.058Z,541.00
2024-01-10T02:18:22.111Z,542.00
2024-01-10T02:19:22.311Z,543.00
2024-01-10T02:21:22.553Z,541.00
2024-01-10T02:22:22.686Z,542.00
2024-01-10T02:23:22.995Z,542.00
2024-01-10T02:24:22.947Z,543.00
2024-01-10T02:25:23.076Z,544.00
2024-01-10T02:26:23.207Z,543.00
2024-01-10T02:27:23.367Z,541.00
2024-01-10T02:28:23.483Z,540.00
2024-01-10T02:29:23.687Z,542.00
2024-01-10T02:30:23.768Z,542.00
2024-01-10T02:31:23.902Z,541.00
2024-01-10T02:32:24.172Z,539.00
2024-01-10T02:33:24.181Z,539.00
2024-01-10T02:34:24.344Z,539.00
2024-01-10T02:35:24.487Z,540.00
2024-01-10T02:36:24.597Z,539.00
2024-01-10T02:37:24.780Z,538.00
2024-01-10T02:38:25.139Z,535.00
2024-01-10T02:39:25.108Z,537.00
2024-01-10T02:40:25.269Z,537.00
2024-01-10T02:41:25.506Z,539.00
2024-01-10T02:42:25.584Z,541.00
2024-01-10T02:43:25.837Z,541.00
2024-01-10T02:44:26.035Z,541.00
2024-01-10T02:45:26.122Z,539.00
2024-01-10T02:46:26.380Z,542.00
2024-01-10T02:47:26.632Z,542.00
2024-01-10T02:48:26.746Z,541.00
2024-01-10T02:49:26.903Z,540.00
2024-01-10T02:50:27.092Z,538.00
2024-01-10T02:51:27.259Z,536.00
2024-01-10T02:52:27.364Z,535.00
2024-01-10T02:53:27.573Z,536.00
2024-01-10T02:54:27.692Z,536.00
2024-01-10T02:55:27.855Z,535.00
2024-01-10T02:56:28.046Z,537.00
2024-01-10T02:57:28.208Z,537.00
2024-01-10T02:58:28.376Z,541.00
2024-01-10T02:59:28.577Z,542.00
2024-01-10T03:00:28.757Z,543.00
2024-01-10T03:01:28.896Z,542.00
2024-01-10T03:02:29.263Z,543.00
2024-01-10T03:03:29.251Z,542.00
2024-01-10T03:04:29.384Z,541.00
2024-01-10T03:05:29.629Z,540.00
2024-01-10T03:06:29.790Z,538.00
2024-01-10T03:07:29.843Z,541.00
2024-01-10T03:08:29.980Z,545.00
2024-01-10T03:09:30.170Z,543.00
2024-01-10T03:10:31.150Z,544.00
2024-01-10T03:11:30.121Z,546.00
2024-01-10T03:12:30.162Z,547.00
2024-01-10T03:13:30.171Z,547.00
2024-01-10T03:14:30.184Z,547.00
2024-01-10T03:15:30.128Z,545.00
2024-01-10T03:16:30.125Z,543.00
2024-01-10T03:17:30.286Z,543.00
2024-01-10T03:18:30.225Z,541.00
2024-01-10T03:19:30.137Z,542.00
2024-01-10T03:20:30.210Z,542.00
2024-01-10T03:21:30.186Z,542.00
2024-01-10T03:22:30.206Z,544.00
2024-01-10T03:23:30.276Z,547.00
2024-01-10T03:24:30.384Z,546.00
2024-01-10T03:25:30.566Z,546.00
2024-01-10T03:26:30.770Z,546.00
2024-01-10T03:27:30.831Z,546.00
2024-01-10T03:28:30.991Z,543.00
2024-01-10T03:29:31.141Z,542.00
2024-01-10T03:30:31.379Z,540.00
2024-01-10T03:31:31.627Z,541.00
2024-01-10T03:32:31.600Z,542.00
2024-01-10T03:33:31.813Z,544.00
2024-01-10T03:34:31.948Z,544.00
2024-01-10T03:35:32.169Z,543.00
2024-01-10T03:36:32.210Z,543.00
2024-01-10T03:37:32.378Z,542.00
2024-01-10T03:38:32.538Z,541.00
2024-01-10T03:39:32.663Z,541.00
2024-01-10T03:40:32.813Z,541.00
2024-01-10T03:41:33.088Z,540.00
2024-01-10T03:42:33.134Z,542.00
2024-01-10T03:43:33.242Z,541.00
2024-01-10T03:44:33.357Z,539.00
2024-01-10T03:45:33.461Z,540.00
2024-01-10T03:46:33.728Z,536.00
2024-01-10T03:47:33.900Z,536.00
2024-01-10T03:48:33.900Z,538.00
2024-01-10T03:49:34.035Z,537.00
2024-01-10T03:50:34.212Z,537.00
2024-01-10T03:51:34.318Z,538.00
2024-01-10T03:52:34.493Z,538.00
2024-01-10T03:53:34.662Z,541.00
2024-01-10T03:54:34.801Z,543.00
2024-01-10T03:55:35.041Z,544.00
2024-01-10T03:56:35.558Z,543.00
2024-01-10T03:57:35.229Z,541.00
2024-01-10T03:58:35.321Z,541.00
2024-01-10T03:59:35.401Z,542.00
2024-01-10T04:00:35.478Z,543.00
2024-01-10T04:01:35.689Z,542.00
2024-01-10T04:02:35.660Z,541.00
2024-01-10T04:03:35.722Z,540.00
2024-01-10T04:04:35.741Z,540.00
2024-01-10T04:05:35.911Z,540.00
2024-01-10T04:06:35.870Z,540.00
2024-01-10T04:07:36.003Z,543.00
2024-01-10T04:08:36.150Z,544.00
2024-01-10T04:09:36.337Z,545.00
2024-01-10T04:10:36.491Z,545.00
2024-01-10T04:11:36.607Z,546.00
2024-01-10T04:12:36.711Z,544.00
2024-01-10T04:13:36.885Z,546.00
2024-01-10T04:14:36.970Z,546.00
2024-01-10T04:15:37.141Z,548.00
2024-01-10T04:16:37.375Z,547.00
2024-01-10T04:17:37.558Z,547.00
2024-01-10T04:18:37.745Z,548.00
2024-01-10T04:19:37.771Z,548.00
2024-01-10T04:20:37.982Z,546.00
2024-01-10T04:21:38.043Z,545.00
2024-01-10T04:22:38.310Z,544.00
2024-01-10T04:23:38.363Z,541.00
2024-01-10T04:24:38.480Z,541.00
2024-01-10T04:25:38.702Z,539.00
2024-01-10T04:26:38.757Z,539.00
2024-01-10T04:27:38.904Z,539.00
2024-01-10T04:28:39.038Z,541.00
2024-01-10T04:29:46.969Z,559.00
2024-01-10T04:30:47.384Z,555.00
2024-01-10T04:31:55.373Z,561.00
2024-01-10T04:32:55.555Z,556.00
2024-01-10T04:33:55.894Z,558.00
2024-01-10T04:34:56.062Z,557.00
2024-01-10T04:35:56.228Z,557.00
2024-01-10T04:36:56.442Z,556.00
2024-01-10T04:37:56.731Z,553.00
2024-01-10T04:38:56.879Z,550.00
2024-01-10T04:39:57.125Z,549.00
2024-01-10T04:40:57.374Z,549.00
2024-01-10T04:41:57.537Z,549.00
2024-01-10T04:42:57.768Z,549.00
2024-01-10T04:43:57.835Z,548.00
2024-01-10T04:44:58.144Z,544.00
2024-01-10T04:45:58.347Z,547.00
2024-01-10T04:46:58.603Z,549.00
2024-01-10T04:47:58.892Z,547.00
2024-01-10T04:48:58.915Z,549.00
2024-01-10T04:49:59.108Z,549.00
2024-01-10T04:50:59.357Z,550.00
2024-01-10T04:51:59.506Z,551.00
2024-01-10T04:52:59.897Z,551.00
2024-01-10T04:54:00.094Z,551.00
2024-01-10T04:55:00.298Z,551.00
2024-01-10T04:56:00.466Z,552.00
2024-01-10T04:57:00.668Z,551.00
2024-01-10T04:58:00.882Z,552.00
2024-01-10T04:59:01.142Z,552.00
2024-01-10T05:00:01.373Z,553.00
2024-01-10T05:01:01.485Z,552.00
2024-01-10T05:02:01.716Z,551.00
2024-01-10T05:03:01.879Z,551.00
2024-01-10T05:04:02.113Z,553.00
2024-01-10T05:05:02.609Z,553.00
2024-01-10T05:06:02.314Z,553.00
2024-01-10T05:07:02.281Z,555.00
2024-01-10T05:08:02.942Z,556.00
2024-01-10T05:09:02.307Z,557.00
2024-01-10T05:10:02.320Z,560.00
2024-01-10T05:11:02.330Z,559.00
2024-01-10T05:12:02.315Z,559.00
2024-01-10T05:13:02.332Z,560.00
2024-01-10T05:14:02.350Z,561.00
2024-01-10T05:15:02.338Z,561.00
2024-01-10T05:16:02.336Z,561.00
2024-01-10T05:17:02.392Z,562.00
2024-01-10T05:18:02.332Z,562.00
2024-01-10T05:19:02.390Z,562.00
2024-01-10T05:20:02.417Z,562.00
2024-01-10T05:21:02.314Z,561.00
2024-01-10T05:22:04.510Z,562.00
2024-01-10T05:23:02.521Z,565.00
2024-01-10T05:24:02.513Z,565.00
2024-01-10T05:25:02.637Z,567.00
2024-01-10T05:26:02.762Z,567.00
2024-01-10T05:27:03.129Z,567.00
2024-01-10T05:28:03.227Z,567.00
2024-01-10T05:29:03.428Z,569.00
2024-01-10T05:30:03.594Z,569.00
2024-01-10T05:31:03.963Z,572.00
2024-01-10T05:32:04.183Z,571.00
2024-01-10T05:33:04.333Z,572.00
2024-01-10T05:34:04.347Z,571.00
2024-01-10T05:35:04.578Z,571.00
2024-01-10T05:36:04.738Z,570.00
2024-01-10T05:37:05.098Z,571.00
2024-01-10T05:38:05.188Z,568.00
2024-01-10T05:39:05.358Z,568.00
2024-01-10T05:40:05.511Z,567.00
2024-01-10T05:41:05.750Z,569.00
2024-01-10T05:42:05.900Z,567.00
2024-01-10T05:43:06.084Z,570.00
2024-01-10T05:44:06.380Z,568.00
2024-01-10T05:45:06.456Z,570.00
2024-01-10T05:46:06.763Z,570.00
2024-01-10T05:47:06.974Z,570.00
2024-01-10T05:48:07.162Z,571.00
2024-01-10T05:49:07.434Z,569.00
2024-01-10T05:50:07.533Z,567.00
2024-01-10T05:51:07.328Z,567.00
2024-01-10T05:52:07.341Z,568.00
2024-01-10T05:53:07.440Z,566.00
2024-01-10T05:54:07.468Z,565.00
2024-01-10T05:55:07.462Z,564.00
2024-01-10T05:56:07.546Z,565.00
2024-01-10T05:57:07.624Z,564.00
2024-01-10T05:58:07.793Z,564.00
2024-01-10T05:59:07.777Z,563.00
2024-01-10T06:00:07.716Z,563.00
2024-01-10T06:01:07.767Z,562.00
2024-01-10T06:02:07.800Z,562.00
2024-01-10T06:03:07.977Z,563.00
2024-01-10T06:04:07.878Z,562.00
2024-01-10T06:05:08.098Z,564.00
2024-01-10T06:06:08.039Z,566.00
2024-01-10T06:07:07.957Z,568.00
2024-01-10T06:08:08.136Z,570.00
2024-01-10T06:09:08.074Z,569.00
2024-01-10T06:10:08.139Z,569.00
2024-01-10T06:11:08.179Z,567.00
2024-01-10T06:12:08.261Z,568.00
2024-01-10T06:13:08.260Z,568.00
2024-01-10T06:14:08.326Z,571.00
2024-01-10T06:15:08.302Z,570.00
2024-01-10T06:16:08.362Z,570.00
2024-01-10T06:17:08.421Z,572.00
2024-01-10T06:18:08.502Z,572.00
2024-01-10T06:19:08.559Z,569.00
2024-01-10T06:20:08.640Z,569.00
2024-01-10T06:21:08.509Z,568.00
2024-01-10T06:22:08.565Z,571.00
2024-01-10T06:23:08.688Z,573.00
2024-01-10T06:24:08.645Z,573.00
2024-01-10T06:25:08.678Z,574.00
2024-01-10T06:26:08.917Z,573.00
2024-01-10T06:27:08.755Z,572.00
2024-01-10T06:28:08.792Z,572.00
2024-01-10T06:29:08.929Z,572.00
2024-01-10T06:30:08.942Z,572.00
2024-01-10T06:31:12.078Z,572.00
2024-01-10T06:32:09.024Z,571.00
2024-01-10T06:33:08.949Z,653.00
2024-01-10T06:34:08.957Z,662.00
2024-01-10T06:35:08.943Z,680.00
2024-01-10T06:36:08.948Z,693.00
2024-01-10T06:37:08.865Z,696.00
2024-01-10T06:38:08.999Z,708.00
2024-01-10T06:39:09.012Z,712.00
2024-01-10T06:40:08.955Z,715.00
2024-01-10T06:41:08.976Z,715.00
2024-01-10T06:42:08.902Z,711.00
2024-01-10T06:43:08.906Z,715.00
2024-01-10T06:44:09.006Z,716.00
2024-01-10T06:45:09.033Z,699.00
2024-01-10T06:46:08.925Z,690.00
2024-01-10T06:47:08.952Z,723.00
2024-01-10T06:48:08.979Z,724.00
2024-01-10T06:49:08.977Z,720.00
2024-01-10T06:50:08.992Z,722.00
2024-01-10T06:51:08.973Z,758.00
2024-01-10T06:52:09.032Z,778.00
2024-01-10T06:53:09.058Z,778.00
2024-01-10T06:54:09.001Z,777.00
2024-01-10T06:55:09.062Z,779.00
2024-01-10T06:56:09.166Z,785.00
2024-01-10T06:57:09.880Z,791.00
2024-01-10T06:58:09.341Z,798.00
2024-01-10T06:59:09.288Z,803.00
2024-01-10T07:00:09.281Z,806.00
2024-01-10T07:01:09.301Z,805.00
2024-01-10T07:02:09.465Z,817.00
2024-01-10T07:03:09.321Z,843.00
2024-01-10T07:04:09.332Z,855.00
2024-01-10T07:05:09.922Z,871.00
2024-01-10T07:06:09.994Z,884.00
2024-01-10T07:07:09.699Z,893.00
2024-01-10T07:08:09.711Z,906.00
2024-01-10T07:09:09.640Z,918.00
2024-01-10T07:10:09.712Z,932.00
2024-01-10T07:11:09.921Z,940.00
2024-01-10T07:12:09.824Z,950.00
2024-01-10T07:13:10.838Z,953.00
2024-01-10T07:14:10.119Z,959.00
2024-01-10T07:15:10.094Z,961.00
2024-01-10T07:16:10.347Z,977.00
2024-01-10T07:17:10.189Z,994.00
2024-01-10T07:18:10.784Z,998.00
2024-01-10T07:19:10.296Z,1001.00
2024-01-10T07:20:10.848Z,1006.00
2024-01-10T07:21:10.513Z,1010.00
2024-01-10T07:22:15.420Z,1014.00
2024-01-10T07:23:10.374Z,1021.00
2024-01-10T07:24:10.332Z,1029.00
2024-01-10T07:25:10.341Z,1039.00
2024-01-10T07:26:10.465Z,1047.00
2024-01-10T07:27:10.537Z,1052.00
2024-01-10T07:28:10.347Z,1059.00
2024-01-10T07:29:10.795Z,1067.00
2024-01-10T07:30:10.427Z,1071.00
2024-01-10T07:31:10.501Z,1077.00
2024-01-10T07:32:13.979Z,1085.00
2024-01-10T07:33:10.941Z,1090.00
2024-01-10T07:34:10.730Z,1090.00
2024-01-10T07:35:10.573Z,1101.00
2024-01-10T07:36:10.468Z,1106.00
2024-01-10T07:37:11.685Z,1111.00
2024-01-10T07:38:10.570Z,960.00
2024-01-10T07:39:10.590Z,903.00
2024-01-10T07:40:10.595Z,898.00
2024-01-10T07:41:10.541Z,884.00
2024-01-10T07:42:10.632Z,894.00
2024-01-10T07:43:13.814Z,906.00
2024-01-10T07:44:11.497Z,920.00
2024-01-10T07:45:10.639Z,924.00
2024-01-10T07:46:10.566Z,914.00
2024-01-10T07:47:11.336Z,906.00
2024-01-10T07:48:10.964Z,903.00
2024-01-10T07:49:10.854Z,889.00
2024-01-10T07:50:10.608Z,865.00
2024-01-10T07:51:10.567Z,858.00
2024-01-10T07:52:10.578Z,854.00
2024-01-10T07:53:10.849Z,858.00
2024-01-10T07:54:10.538Z,861.00
2024-01-10T07:55:10.940Z,872.00
2024-01-10T07:56:10.575Z,885.00
2024-01-10T07:57:10.964Z,899.00
2024-01-10T07:58:10.825Z,915.00
2024-01-10T07:59:10.646Z,927.00
2024-01-10T08:00:10.563Z,939.00
2024-01-10T08:01:10.603Z,952.00
2024-01-10T08:02:10.729Z,963.00
2024-01-10T08:03:11.424Z,966.00
2024-01-10T08:04:12.850Z,970.00
2024-01-10T08:05:10.713Z,983.00
2024-01-10T08:06:17.837Z,991.00
2024-01-10T08:07:11.597Z,1001.00
2024-01-10T08:08:10.942Z,1009.00
2024-01-10T08:09:11.662Z,1012.00
2024-01-10T08:10:10.538Z,1020.00
2024-01-10T08:11:10.729Z,1033.00
2024-01-10T08:12:10.630Z,1044.00
2024-01-10T08:13:10.932Z,1053.00
2024-01-10T08:14:10.599Z,1056.00
2024-01-10T08:15:11.965Z,1061.00
2024-01-10T08:16:11.312Z,1063.00
2024-01-10T08:17:10.748Z,1065.00
2024-01-10T08:18:10.640Z,1072.00
2024-01-10T08:19:11.499Z,1073.00
2024-01-10T08:20:11.019Z,1084.00
2024-01-10T08:21:10.608Z,1092.00
2024-01-10T08:22:10.671Z,1102.00
2024-01-10T08:23:10.705Z,1107.00
2024-01-10T08:24:10.686Z,1114.00
2024-01-10T08:25:11.339Z,1120.00
2024-01-10T08:26:10.806Z,1124.00
2024-01-10T08:27:10.562Z,1127.00
2024-01-10T08:28:10.589Z,1129.00
2024-01-10T08:29:10.630Z,1133.00
2024-01-10T08:30:11.022Z,1144.00
2024-01-10T08:31:10.661Z,1151.00
2024-01-10T08:32:10.689Z,1156.00
2024-01-10T08:33:10.878Z,1160.00
2024-01-10T08:34:10.619Z,1009.00
2024-01-10T08:35:11.633Z,927.00
2024-01-10T08:36:11.437Z,888.00
2024-01-10T08:37:10.890Z,881.00
2024-01-10T08:38:10.959Z,993.00
2024-01-10T08:39:10.779Z,1006.00
2024-01-10T08:40:10.815Z,1001.00
2024-01-10T08:41:10.805Z,1011.00
2024-01-10T08:42:10.809Z,1018.00
2024-01-10T08:43:11.644Z,1022.00
2024-01-10T08:44:10.996Z,1027.00
2024-01-10T08:45:13.335Z,1032.00
2024-01-10T08:46:12.011Z,1043.00
2024-01-10T08:47:12.259Z,1049.00
2024-01-10T08:48:12.036Z,1047.00
2024-01-10T08:49:11.247Z,1044.00
2024-01-10T08:50:11.417Z,1047.00
2024-01-10T08:51:14.284Z,1050.00
2024-01-10T08:52:11.332Z,1051.00
2024-01-10T08:53:11.589Z,1052.00
2024-01-10T08:54:11.333Z,1050.00
2024-01-10T08:55:13.708Z,1050.00
2024-01-10T08:56:13.033Z,1051.00
2024-01-10T08:57:11.456Z,1054.00
2024-01-10T08:58:11.340Z,1052.00
2024-01-10T08:59:11.367Z,1056.00
2024-01-10T09:00:13.979Z,1057.00
2024-01-10T09:01:12.060Z,1057.00
2024-01-10T09:02:11.303Z,1056.00
2024-01-10T09:03:11.574Z,1053.00
2024-01-10T09:04:11.297Z,1055.00
2024-01-10T09:05:14.840Z,1054.00
2024-01-10T09:06:12.701Z,1052.00
2024-01-10T09:07:11.799Z,1052.00
2024-01-10T09:08:11.329Z,1051.00
2024-01-10T09:09:11.314Z,1045.00
2024-01-10T09:10:11.315Z,1042.00
2024-01-10T09:11:11.552Z,1042.00
2024-01-10T09:12:11.816Z,1034.00
2024-01-10T09:13:11.549Z,1030.00
2024-01-10T09:14:11.398Z,1032.00
2024-01-10T09:15:16.561Z,1034.00
2024-01-10T09:16:13.842Z,1033.00
2024-01-10T09:17:11.635Z,1034.00
2024-01-10T09:18:33.231Z,1035.00
2024-01-10T09:19:12.061Z,1034.00
2024-01-10T09:20:11.322Z,1033.00
2024-01-10T09:21:11.347Z,1031.00
2024-01-10T09:22:11.322Z,1025.00
2024-01-10T09:23:12.029Z,999.00
2024-01-10T09:24:18.743Z,990.00
2024-01-10T09:25:13.062Z,977.00
2024-01-10T09:26:11.329Z,970.00
2024-01-10T09:27:11.347Z,961.00
2024-01-10T09:28:11.329Z,951.00
2024-01-10T09:29:11.284Z,939.00
2024-01-10T09:30:11.346Z,930.00
2024-01-10T09:31:11.342Z,921.00
2024-01-10T09:32:11.374Z,911.00
2024-01-10T09:33:11.402Z,895.00
2024-01-10T09:34:11.514Z,884.00
2024-01-10T09:35:11.392Z,872.00
2024-01-10T09:36:11.910Z,864.00
2024-01-10T09:37:11.308Z,855.00
2024-01-10T09:38:11.388Z,845.00
2024-01-10T09:39:11.323Z,837.00
2024-01-10T09:40:11.269Z,825.00
2024-01-10T09:41:12.980Z,817.00
2024-01-10T09:42:12.803Z,808.00
2024-01-10T09:43:14.398Z,800.00
2024-01-10T09:44:11.447Z,808.00
2024-01-10T09:45:11.325Z,820.00
2024-01-10T09:46:11.355Z,820.00
2024-01-10T09:47:11.323Z,816.00
2024-01-10T09:48:11.428Z,802.00
2024-01-10T09:49:11.494Z,782.00
2024-01-10T09:50:11.388Z,775.00
2024-01-10T09:51:11.462Z,781.00
2024-01-10T09:52:13.891Z,775.00
2024-01-10T09:53:11.670Z,781.00
2024-01-10T09:54:11.312Z,783.00
2024-01-10T09:55:12.219Z,792.00
2024-01-10T09:56:11.414Z,794.00
2024-01-10T09:57:11.452Z,785.00
2024-01-10T09:58:11.363Z,788.00
2024-01-10T09:59:11.344Z,796.00
2024-01-10T10:00:11.362Z,789.00
2024-01-10T10:01:16.557Z,787.00
2024-01-10T10:02:11.618Z,795.00
2024-01-10T10:03:11.350Z,826.00
2024-01-10T10:04:11.399Z,814.00
2024-01-10T10:05:11.664Z,817.00
2024-01-10T10:06:14.363Z,816.00
2024-01-10T10:07:11.525Z,816.00
2024-01-10T10:08:12.618Z,822.00
2024-01-10T10:09:11.484Z,812.00
2024-01-10T10:10:11.401Z,818.00
2024-01-10T10:11:11.509Z,784.00
2024-01-10T10:12:11.367Z,807.00
2024-01-10T10:13:13.548Z,822.00
2024-01-10T10:14:11.908Z,831.00
2024-01-10T10:15:11.592Z,846.00
2024-01-10T10:16:11.590Z,869.00
2024-01-10T10:17:11.426Z,888.00
2024-01-10T10:18:11.444Z,900.00
2024-01-10T10:19:11.484Z,910.00
2024-01-10T10:20:18.028Z,917.00
2024-01-10T10:21:12.199Z,926.00
2024-01-10T10:22:11.436Z,933.00
2024-01-10T10:23:11.671Z,942.00
2024-01-10T10:24:11.364Z,952.00
2024-01-10T10:25:11.375Z,959.00
2024-01-10T10:26:12.685Z,965.00
2024-01-10T10:27:13.508Z,967.00
2024-01-10T10:28:20.993Z,972.00
2024-01-10T10:29:12.484Z,978.00
2024-01-10T10:30:11.459Z,990.00
2024-01-10T10:31:11.473Z,998.00
2024-01-10T10:32:12.052Z,1007.00
2024-01-10T10:33:11.517Z,1027.00
2024-01-10T10:34:11.612Z,1081.00
2024-01-10T10:35:24.668Z,1096.00
2024-01-10T10:36:12.694Z,1009.00
2024-01-10T10:37:14.515Z,975.00
2024-01-10T10:38:11.923Z,924.00
2024-01-10T10:39:11.417Z,925.00
2024-01-10T10:40:12.019Z,932.00
2024-01-10T10:41:13.396Z,962.00
2024-01-10T10:42:11.490Z,946.00
2024-01-10T10:43:13.461Z,932.00
2024-01-10T10:44:11.551Z,902.00
2024-01-10T10:45:12.646Z,885.00
2024-01-10T10:46:11.471Z,860.00
2024-01-10T10:47:13.110Z,855.00
2024-01-10T10:48:11.495Z,852.00
2024-01-10T10:49:11.593Z,847.00
2024-01-10T10:50:11.507Z,845.00
2024-01-10T10:51:13.485Z,848.00
2024-01-10T10:52:11.485Z,848.00
2024-01-10T10:53:13.093Z,843.00
2024-01-10T10:54:12.446Z,841.00
2024-01-10T10:55:11.940Z,841.00
2024-01-10T10:56:11.778Z,838.00
2024-01-10T10:57:11.777Z,837.00
2024-01-10T10:58:12.596Z,841.00
2024-01-10T10:59:11.801Z,852.00
2024-01-10T11:00:11.931Z,851.00
2024-01-10T11:01:11.890Z,851.00
2024-01-10T11:02:11.945Z,851.00
2024-01-10T11:03:12.056Z,854.00
2024-01-10T11:04:11.912Z,853.00
2024-01-10T11:05:11.926Z,851.00
2024-01-10T11:06:12.090Z,853.00
2024-01-10T11:07:11.990Z,855.00
2024-01-10T11:08:11.913Z,856.00
2024-01-10T11:09:19.550Z,858.00
2024-01-10T11:10:12.497Z,870.00
2024-01-10T11:11:14.495Z,874.00
2024-01-10T11:12:13.180Z,875.00
2024-01-10T11:13:12.170Z,873.00
2024-01-10T11:14:12.470Z,872.00
2024-01-10T11:15:12.481Z,871.00
2024-01-10T11:16:12.279Z,866.00
2024-01-10T11:17:12.207Z,859.00
2024-01-10T11:18:12.412Z,856.00
2024-01-10T11:19:12.483Z,857.00
2024-01-10T11:20:12.540Z,859.00
2024-01-10T11:21:12.935Z,862.00
2024-01-10T11:22:13.186Z,863.00
2024-01-10T11:23:12.924Z,864.00
2024-01-10T11:24:17.345Z,840.00
2024-01-10T11:25:13.250Z,829.00
2024-01-10T11:26:12.546Z,815.00
2024-01-10T11:27:13.141Z,807.00
2024-01-10T11:28:12.975Z,763.00
2024-01-10T11:29:12.411Z,721.00
2024-01-10T11:30:12.396Z,708.00
2024-01-10T11:31:12.479Z,703.00
2024-01-10T11:32:12.479Z,706.00
2024-01-10T11:33:12.552Z,716.00
2024-01-10T11:34:12.727Z,732.00
2024-01-10T11:35:13.321Z,743.00
2024-01-10T11:36:12.793Z,752.00
2024-01-10T11:37:12.940Z,760.00
2024-01-10T11:38:12.715Z,767.00
2024-01-10T11:39:13.461Z,771.00
2024-01-10T11:40:12.543Z,775.00
2024-01-10T11:41:13.529Z,779.00
2024-01-10T11:42:13.073Z,787.00
2024-01-10T11:43:12.614Z,798.00
2024-01-10T11:44:13.328Z,803.00
2024-01-10T11:45:16.463Z,807.00
2024-01-10T11:46:12.838Z,810.00
2024-01-10T11:47:13.364Z,810.00
2024-01-10T11:48:12.885Z,815.00
2024-01-10T11:49:13.108Z,820.00
2024-01-10T11:50:12.732Z,822.00
2024-01-10T11:51:13.551Z,824.00
2024-01-10T11:52:18.189Z,828.00
2024-01-10T11:53:12.849Z,829.00
2024-01-10T11:54:17.095Z,833.00
2024-01-10T11:55:12.864Z,837.00
2024-01-10T11:56:13.592Z,841.00
2024-01-10T11:57:12.982Z,841.00
2024-01-10T11:58:13.003Z,839.00
2024-01-10T11:59:13.351Z,843.00
2024-01-10T12:00:13.200Z,845.00
2024-01-10T12:01:12.911Z,848.00
2024-01-10T12:02:14.580Z,851.00
2024-01-10T12:03:13.690Z,848.00
2024-01-10T12:04:20.485Z,851.00
2024-01-10T12:05:13.974Z,855.00
2024-01-10T12:06:13.113Z,854.00
2024-01-10T12:07:12.965Z,857.00
2024-01-10T12:08:12.940Z,860.00
2024-01-10T12:09:17.190Z,862.00
2024-01-10T12:10:13.462Z,863.00
2024-01-10T12:11:13.112Z,865.00
2024-01-10T12:12:14.058Z,868.00
2024-01-10T12:13:13.221Z,871.00
2024-01-10T12:14:15.682Z,870.00
2024-01-10T12:15:13.435Z,871.00
2024-01-10T12:16:13.557Z,876.00
2024-01-10T12:17:13.592Z,875.00
2024-01-10T12:18:13.666Z,875.00
2024-01-10T12:19:13.793Z,877.00
2024-01-10T12:20:13.784Z,881.00
2024-01-10T12:21:13.805Z,880.00
2024-01-10T12:22:14.506Z,777.00
2024-01-10T12:23:13.957Z,750.00
2024-01-10T12:24:13.926Z,733.00
2024-01-10T12:25:13.978Z,718.00
2024-01-10T12:26:14.096Z,701.00
2024-01-10T12:27:14.518Z,657.00